| time (UTC) | temp C | wind direction | speed KPH | gust KPH | rain 1hr cm | rain 24hr cm | rain mn cm | humidity % | barometer mb |
| 20260504175008 | 17 | 0 | 0.0 | 8.0 | 0.00 | 0.00 | 0.00 | 56 | 1017.2 |
| 20260504174530 | 17 | 268 | 1.6 | 8.0 | 0.00 | 0.00 | 0.00 | 58 | 1017.1 |
| 20260504174011 | 17 | 307 | 0.0 | 6.4 | 0.00 | 0.00 | 0.00 | 55 | 1017.1 |
| 20260504173512 | 17 | 318 | 1.6 | 6.4 | 0.00 | 0.00 | 0.00 | 54 | 1017.0 |
| 20260504173029 | 17 | 313 | 1.6 | 6.4 | 0.00 | 0.00 | 0.00 | 54 | 1017.0 |
| 20260504172511 | 17 | 304 | 1.6 | 8.0 | 0.00 | 0.00 | 0.00 | 51 | 1016.8 |
| 20260504172012 | 18 | 306 | 1.6 | 8.0 | 0.00 | 0.00 | 0.00 | 50 | 1016.9 |
| 20260504171528 | 18 | 308 | 3.2 | 8.0 | 0.00 | 0.00 | 0.00 | 48 | 1016.8 |
| 20260504171015 | 18 | 311 | 1.6 | 9.7 | 0.00 | 0.00 | 0.00 | 50 | 1016.9 |
| 20260504170515 | 18 | 322 | 3.2 | 9.7 | 0.00 | 0.00 | 0.00 | 46 | 1016.8 |
| 20260504151010 | 21 | 259 | 4.8 | 12.9 | 0.00 | 0.00 | 0.00 | 42 | 1016.6 |
| 20260504150516 | 21 | 352 | 4.8 | 11.3 | 0.00 | 0.00 | 0.00 | 42 | 1016.6 |
| 20260504141015 | 21 | 285 | 8.0 | 17.7 | 0.00 | 0.00 | 0.00 | 39 | 1016.8 |
| 20260504140512 | 21 | 272 | 8.0 | 16.1 | 0.00 | 0.00 | 0.00 | 40 | 1016.8 |
| 20260504130510 | 21 | 304 | 8.0 | 20.9 | 0.00 | 0.00 | 0.00 | 44 | 1017.0 |
| 20260504110513 | 21 | 309 | 4.8 | 19.3 | 0.00 | 0.18 | 0.00 | 41 | 1017.8 |
| 20260504100514 | 20 | 290 | 8.0 | 24.1 | 0.00 | 0.18 | 0.00 | 43 | 1018.4 |
| 20260504081529 | 17 | 327 | 6.4 | 16.1 | 0.00 | 0.18 | 0.00 | 47 | 1019.1 |
| 20260504081011 | 17 | 319 | 8.0 | 16.1 | 0.00 | 0.18 | 0.00 | 47 | 1019.0 |
| 20260504080510 | 18 | 308 | 6.4 | 22.5 | 0.00 | 0.18 | 0.00 | 49 | 1019.1 |
| 20260504050513 | 12 | 307 | 11.3 | 19.3 | 0.00 | 0.18 | 0.00 | 62 | 1018.8 |
| 20260504045512 | 12 | 317 | 9.7 | 22.5 | 0.00 | 0.18 | 0.00 | 68 | 1018.9 |
| 20260504045012 | 11 | 297 | 12.9 | 22.5 | 0.00 | 0.18 | 0.00 | 70 | 1018.9 |
| 20260504044537 | 11 | 322 | 12.9 | 20.9 | 0.00 | 0.18 | 0.00 | 71 | 1018.9 |
| 20260504044013 | 11 | 324 | 11.3 | 19.3 | 0.00 | 0.18 | 0.00 | 70 | 1019.0 |
| 20260504043513 | 11 | 330 | 6.4 | 19.3 | 0.00 | 0.18 | 0.00 | 71 | 1019.0 |
| 20260504043029 | 11 | 331 | 8.0 | 22.5 | 0.00 | 0.18 | 0.00 | 71 | 1019.0 |
| 20260504042513 | 11 | 319 | 8.0 | 22.5 | 0.00 | 0.18 | 0.00 | 71 | 1018.9 |
| 20260504042009 | 11 | 356 | 6.4 | 19.3 | 0.00 | 0.18 | 0.00 | 71 | 1018.8 |
| 20260504041528 | 11 | 326 | 9.7 | 20.9 | 0.00 | 0.18 | 0.00 | 71 | 1018.8 |
| 20260504041012 | 11 | 290 | 11.3 | 20.9 | 0.00 | 0.18 | 0.00 | 71 | 1018.7 |
| 20260504040511 | 10 | 338 | 8.0 | 20.9 | 0.00 | 0.18 | 0.00 | 71 | 1018.7 |
| 20260504040030 | 10 | 255 | 8.0 | 16.1 | 0.00 | 0.18 | 0.00 | 71 | 1018.7 |
| 20260504035515 | 10 | 290 | 9.7 | 19.3 | 0.00 | 0.18 | 0.00 | 71 | 1018.6 |
| 20260504035015 | 10 | 304 | 11.3 | 19.3 | 0.00 | 0.18 | 0.00 | 71 | 1018.6 |
| 20260504034546 | 10 | 304 | 9.7 | 24.1 | 0.00 | 0.18 | 0.00 | 71 | 1018.6 |
| 20260504034012 | 10 | 278 | 8.0 | 24.1 | 0.00 | 0.18 | 0.00 | 71 | 1018.5 |
| 20260504033510 | 10 | 295 | 8.0 | 17.7 | 0.00 | 0.18 | 0.00 | 72 | 1018.4 |
| 20260504033033 | 10 | 290 | 1.6 | 12.9 | 0.00 | 0.18 | 0.00 | 72 | 1018.4 |
| 20260504032513 | 10 | 266 | 1.6 | 12.9 | 0.00 | 0.18 | 0.00 | 71 | 1018.5 |
| 20260504032011 | 10 | 313 | 4.8 | 11.3 | 0.00 | 0.18 | 0.00 | 72 | 1018.4 |
| 20260504031530 | 9 | 290 | 3.2 | 9.7 | 0.00 | 0.18 | 0.00 | 72 | 1018.4 |
| 20260504031009 | 8 | 243 | 1.6 | 6.4 | 0.00 | 0.18 | 0.00 | 67 | 1018.4 |
| 20260504030511 | 8 | 0 | 1.6 | 6.4 | 0.00 | 0.18 | 0.00 | 63 | 1018.5 |
| 20260504030042 | 8 | 271 | 0.0 | 4.8 | 0.00 | 0.18 | 0.00 | 64 | 1018.5 |
| 20260504025512 | 8 | 0 | 1.6 | 4.8 | 0.00 | 0.18 | 0.00 | 65 | 1018.5 |
| 20260504025012 | 8 | 226 | 1.6 | 6.4 | 0.00 | 0.18 | 0.00 | 68 | 1018.5 |
| 20260504024530 | 9 | 252 | 1.6 | 17.7 | 0.00 | 0.18 | 0.00 | 68 | 1018.6 |
| 20260504024012 | 9 | 261 | 1.6 | 17.7 | 0.00 | 0.18 | 0.00 | 70 | 1018.6 |
| 20260504023512 | 9 | 240 | 4.8 | 17.7 | 0.00 | 0.18 | 0.00 | 72 | 1018.6 |
| 20260504023031 | 8 | 300 | 4.8 | 17.7 | 0.00 | 0.18 | 0.00 | 74 | 1018.7 |
| 20260504022512 | 7 | 305 | 1.6 | 14.5 | 0.00 | 0.18 | 0.00 | 73 | 1018.7 |
| 20260504022011 | 7 | 227 | 1.6 | 4.8 | 0.00 | 0.18 | 0.00 | 70 | 1018.6 |
| 20260504021530 | 7 | 222 | 1.6 | 4.8 | 0.00 | 0.18 | 0.00 | 70 | 1018.7 |
| 20260504021012 | 7 | 236 | 1.6 | 4.8 | 0.00 | 0.18 | 0.00 | 70 | 1018.6 |
| 20260504020509 | 7 | 208 | 1.6 | 6.4 | 0.00 | 0.18 | 0.00 | 69 | 1018.7 |
| 20260504020032 | 7 | 0 | 0.0 | 6.4 | 0.00 | 0.18 | 0.00 | 67 | 1018.7 |
| 20260504015509 | 8 | 234 | 3.2 | 8.0 | 0.00 | 0.18 | 0.00 | 66 | 1018.7 |
| 20260504015010 | 8 | 221 | 0.0 | 8.0 | 0.00 | 0.18 | 0.00 | 66 | 1018.8 |
| 20260504014540 | 9 | 303 | 1.6 | 11.3 | 0.00 | 0.18 | 0.00 | 68 | 1018.7 |
| 20260504014013 | 9 | 312 | 0.0 | 11.3 | 0.00 | 0.18 | 0.00 | 67 | 1018.7 |
| 20260504013512 | 8 | 325 | 1.6 | 12.9 | 0.00 | 0.18 | 0.00 | 67 | 1018.7 |
| 20260504013033 | 8 | 252 | 1.6 | 12.9 | 0.00 | 0.18 | 0.00 | 67 | 1018.6 |
| 20260504012514 | 8 | 262 | 1.6 | 9.7 | 0.00 | 0.18 | 0.00 | 67 | 1018.6 |
| 20260504012013 | 8 | 221 | 1.6 | 9.7 | 0.00 | 0.18 | 0.00 | 68 | 1018.6 |
| 20260504011530 | 7 | 293 | 0.0 | 9.7 | 0.00 | 0.18 | 0.00 | 69 | 1018.6 |
| 20260504011015 | 7 | 242 | 1.6 | 4.8 | 0.00 | 0.18 | 0.00 | 68 | 1018.7 |
| 20260504010511 | 7 | 226 | 1.6 | 3.2 | 0.00 | 0.18 | 0.00 | 69 | 1018.6 |
| 20260504010030 | 7 | 217 | 1.6 | 3.2 | 0.00 | 0.18 | 0.00 | 68 | 1018.5 |
| 20260504005512 | 7 | 221 | 1.6 | 3.2 | 0.00 | 0.18 | 0.00 | 68 | 1018.6 |
| 20260504005011 | 7 | 210 | 1.6 | 3.2 | 0.00 | 0.18 | 0.00 | 67 | 1018.6 |
| 20260504004532 | 7 | 195 | 0.0 | 4.8 | 0.00 | 0.18 | 0.00 | 68 | 1018.6 |
| 20260504004012 | 7 | 210 | 1.6 | 4.8 | 0.00 | 0.18 | 0.00 | 69 | 1018.6 |
| 20260504003512 | 7 | 230 | 1.6 | 6.4 | 0.00 | 0.18 | 0.00 | 68 | 1018.6 |
| 20260504003035 | 7 | 221 | 3.2 | 6.4 | 0.00 | 0.18 | 0.00 | 67 | 1018.6 |
| 20260504002513 | 7 | 229 | 1.6 | 6.4 | 0.00 | 0.18 | 0.00 | 67 | 1018.6 |
| 20260504002011 | 7 | 212 | 3.2 | 6.4 | 0.00 | 0.18 | 0.00 | 67 | 1018.7 |
| 20260504001530 | 7 | 263 | 1.6 | 4.8 | 0.00 | 0.18 | 0.00 | 69 | 1018.5 |
| 20260504001009 | 7 | 239 | 3.2 | 4.8 | 0.00 | 0.18 | 0.00 | 70 | 1018.6 |
| 20260504000507 | 7 | 201 | 1.6 | 4.8 | 0.00 | 0.18 | 0.00 | 71 | 1018.6 |
| 20260504000030 | 7 | 193 | 1.6 | 4.8 | 0.00 | 0.18 | 0.00 | 71 | 1018.6 |
| 20260503235512 | 7 | 219 | 3.2 | 4.8 | 0.00 | 0.18 | 0.00 | 71 | 1018.7 |
| 20260503235011 | 7 | 235 | 1.6 | 6.4 | 0.00 | 0.18 | 0.00 | 72 | 1018.7 |
| 20260503234538 | 7 | 233 | 3.2 | 6.4 | 0.00 | 0.18 | 0.00 | 72 | 1018.8 |
| 20260503234011 | 7 | 232 | 3.2 | 6.4 | 0.00 | 0.18 | 0.00 | 72 | 1018.8 |
| 20260503233507 | 7 | 198 | 3.2 | 6.4 | 0.00 | 0.18 | 0.00 | 73 | 1018.9 |
| 20260503233030 | 7 | 213 | 3.2 | 6.4 | 0.00 | 0.18 | 0.00 | 73 | 1018.8 |
| 20260503232511 | 7 | 128 | 3.2 | 6.4 | 0.00 | 0.18 | 0.00 | 74 | 1018.9 |
| 20260503232010 | 7 | 224 | 3.2 | 6.4 | 0.00 | 0.18 | 0.00 | 75 | 1018.9 |
| 20260503231533 | 7 | 214 | 1.6 | 4.8 | 0.00 | 0.18 | 0.00 | 76 | 1019.0 |
| 20260503231014 | 7 | 212 | 0.0 | 1.6 | 0.00 | 0.18 | 0.00 | 75 | 1019.0 |
| 20260503230511 | 7 | 0 | 0.0 | 3.2 | 0.00 | 0.18 | 0.00 | 75 | 1018.9 |
| 20260503230030 | 7 | 156 | 1.6 | 3.2 | 0.00 | 0.18 | 0.00 | 75 | 1018.9 |
| 20260503225510 | 7 | 167 | 1.6 | 3.2 | 0.00 | 0.18 | 0.00 | 75 | 1018.9 |
| 20260503225010 | 7 | 223 | 0.0 | 4.8 | 0.00 | 0.18 | 0.00 | 74 | 1019.1 |
| 20260503224529 | 7 | 225 | 1.6 | 4.8 | 0.00 | 0.18 | 0.00 | 74 | 1019.1 |
| 20260503224009 | 7 | 211 | 1.6 | 4.8 | 0.00 | 0.18 | 0.00 | 75 | 1019.1 |
| 20260503223511 | 7 | 0 | 1.6 | 4.8 | 0.00 | 0.18 | 0.00 | 74 | 1019.1 |
| 20260503223030 | 7 | 207 | 0.0 | 3.2 | 0.00 | 0.18 | 0.00 | 74 | 1019.0 |
| 20260503222508 | 7 | 220 | 1.6 | 3.2 | 0.00 | 0.18 | 0.00 | 74 | 1019.1 |
| 20260503222010 | 7 | 214 | 1.6 | 3.2 | 0.00 | 0.18 | 0.00 | 73 | 1019.1 |
| 20260503221534 | 7 | 230 | 1.6 | 4.8 | 0.00 | 0.18 | 0.00 | 72 | 1019.1 |
| 20260503221012 | 7 | 229 | 1.6 | 4.8 | 0.00 | 0.18 | 0.00 | 72 | 1019.1 |
| 20260503220511 | 7 | 212 | 0.0 | 4.8 | 0.00 | 0.18 | 0.00 | 71 | 1019.2 |
| 20260503220029 | 7 | 217 | 1.6 | 4.8 | 0.00 | 0.18 | 0.00 | 71 | 1019.2 |
| 20260503215512 | 7 | 206 | 1.6 | 6.4 | 0.00 | 0.18 | 0.00 | 71 | 1019.1 |
| 20260503215011 | 7 | 235 | 1.6 | 8.0 | 0.00 | 0.18 | 0.00 | 71 | 1019.2 |
| 20260503214530 | 7 | 229 | 3.2 | 8.0 | 0.00 | 0.18 | 0.00 | 70 | 1019.2 |
| 20260503214011 | 7 | 184 | 3.2 | 8.0 | 0.00 | 0.18 | 0.00 | 71 | 1019.1 |
| 20260503213509 | 7 | 200 | 3.2 | 6.4 | 0.00 | 0.18 | 0.00 | 71 | 1019.2 |
| 20260503213057 | 7 | 217 | 1.6 | 4.8 | 0.00 | 0.18 | 0.00 | 70 | 1019.2 |
| 20260503212512 | 7 | 195 | 1.6 | 4.8 | 0.00 | 0.18 | 0.00 | 69 | 1019.2 |
| 20260503212012 | 7 | 205 | 0.0 | 4.8 | 0.00 | 0.18 | 0.00 | 68 | 1019.3 |
| 20260503211531 | 7 | 256 | 0.0 | 4.8 | 0.00 | 0.18 | 0.00 | 68 | 1019.2 |
| 20260503211011 | 7 | 234 | 1.6 | 4.8 | 0.00 | 0.18 | 0.00 | 68 | 1019.3 |
| 20260503210514 | 8 | 227 | 1.6 | 3.2 | 0.00 | 0.18 | 0.00 | 67 | 1019.4 |
| 20260503210031 | 8 | 0 | 0.0 | 3.2 | 0.00 | 0.18 | 0.00 | 67 | 1019.3 |
| 20260503205514 | 8 | 233 | 0.0 | 1.6 | 0.00 | 0.18 | 0.18 | 66 | 1019.3 |
| 20260503205012 | 8 | 0 | 0.0 | 1.6 | 0.00 | 0.18 | 0.18 | 67 | 1019.3 |
| 20260503204545 | 8 | 210 | 0.0 | 8.0 | 0.00 | 0.18 | 0.18 | 65 | 1019.3 |
| 20260503204012 | 8 | 0 | 0.0 | 8.0 | 0.00 | 0.18 | 0.18 | 64 | 1019.2 |
| 20260503203510 | 8 | 233 | 1.6 | 6.4 | 0.00 | 0.18 | 0.18 | 63 | 1019.3 |
| 20260503203031 | 8 | 216 | 3.2 | 6.4 | 0.00 | 0.18 | 0.18 | 63 | 1019.2 |
| 20260503202511 | 8 | 177 | 3.2 | 6.4 | 0.00 | 0.18 | 0.18 | 63 | 1019.2 |
| 20260503202015 | 9 | 184 | 3.2 | 4.8 | 0.00 | 0.18 | 0.18 | 63 | 1019.2 |
| 20260503201529 | 9 | 236 | 1.6 | 4.8 | 0.00 | 0.18 | 0.18 | 63 | 1019.3 |
| 20260503201010 | 9 | 165 | 3.2 | 8.0 | 0.00 | 0.18 | 0.18 | 63 | 1019.2 |
| 20260503200511 | 9 | 240 | 3.2 | 8.0 | 0.00 | 0.18 | 0.18 | 63 | 1019.3 |
| 20260503200033 | 9 | 217 | 1.6 | 6.4 | 0.00 | 0.18 | 0.18 | 62 | 1019.1 |
| 20260503195511 | 9 | 167 | 1.6 | 6.4 | 0.00 | 0.18 | 0.18 | 63 | 1019.1 |
| 20260503195013 | 9 | 230 | 3.2 | 9.7 | 0.00 | 0.18 | 0.18 | 63 | 1019.1 |
| 20260503194532 | 9 | 153 | 3.2 | 9.7 | 0.00 | 0.18 | 0.18 | 63 | 1019.2 |
| 20260503194010 | 9 | 248 | 3.2 | 9.7 | 0.00 | 0.18 | 0.18 | 62 | 1019.0 |
| 20260503193510 | 9 | 174 | 3.2 | 8.0 | 0.00 | 0.18 | 0.18 | 62 | 1019.1 |
| 20260503193039 | 9 | 199 | 3.2 | 8.0 | 0.00 | 0.18 | 0.18 | 63 | 1019.2 |
| 20260503192511 | 9 | 181 | 1.6 | 6.4 | 0.00 | 0.18 | 0.18 | 62 | 1019.1 |
| 20260503192015 | 9 | 213 | 3.2 | 6.4 | 0.00 | 0.18 | 0.18 | 63 | 1019.1 |
| 20260503191529 | 9 | 203 | 3.2 | 6.4 | 0.00 | 0.18 | 0.18 | 64 | 1019.1 |
| 20260503191013 | 8 | 180 | 3.2 | 6.4 | 0.00 | 0.18 | 0.18 | 66 | 1019.2 |
| 20260503190514 | 8 | 205 | 3.2 | 8.0 | 0.00 | 0.18 | 0.18 | 65 | 1019.2 |
| 20260503190029 | 9 | 171 | 4.8 | 9.7 | 0.00 | 0.18 | 0.18 | 65 | 1019.1 |
| 20260503185513 | 9 | 203 | 3.2 | 9.7 | 0.00 | 0.18 | 0.18 | 65 | 1019.0 |
| 20260503185012 | 9 | 198 | 3.2 | 6.4 | 0.00 | 0.18 | 0.18 | 65 | 1019.0 |
| 20260503184538 | 9 | 207 | 3.2 | 8.0 | 0.00 | 0.18 | 0.18 | 65 | 1018.9 |
| 20260503184012 | 9 | 161 | 3.2 | 9.7 | 0.00 | 0.18 | 0.18 | 66 | 1018.9 |
| 20260503183509 | 9 | 170 | 4.8 | 9.7 | 0.00 | 0.18 | 0.18 | 66 | 1018.9 |
| 20260503183029 | 9 | 212 | 3.2 | 9.7 | 0.00 | 0.18 | 0.18 | 65 | 1018.7 |
| 20260503182537 | 9 | 154 | 3.2 | 8.0 | 0.00 | 0.18 | 0.18 | 66 | 1018.7 |
| 20260503182014 | 9 | 164 | 3.2 | 8.0 | 0.00 | 0.18 | 0.18 | 66 | 1018.8 |
| 20260503181528 | 9 | 188 | 3.2 | 8.0 | 0.00 | 0.18 | 0.18 | 67 | 1018.8 |
| 20260503181013 | 9 | 199 | 3.2 | 9.7 | 0.00 | 0.18 | 0.18 | 68 | 1018.7 |
| 20260503180512 | 9 | 204 | 3.2 | 9.7 | 0.00 | 0.18 | 0.18 | 68 | 1018.6 |
| 20260503180040 | 9 | 188 | 4.8 | 8.0 | 0.00 | 0.18 | 0.18 | 68 | 1018.5 |
| 20260503175511 | 9 | 231 | 4.8 | 8.0 | 0.00 | 0.18 | 0.18 | 68 | 1018.4 |